createdAt,value
2018-04-27T00:01:17.990Z,100890
2018-04-27T00:03:47.789Z,100881
2018-04-27T00:06:16.125Z,100882
2018-04-27T00:08:44.470Z,100886
2018-04-27T00:11:13.526Z,100881
2018-04-27T00:13:42.065Z,100885
2018-04-27T00:16:10.365Z,100883
2018-04-27T00:18:38.666Z,100877
2018-04-27T00:21:07.101Z,100880
2018-04-27T00:23:35.585Z,100875
2018-04-27T00:26:03.882Z,100876
2018-04-27T00:28:33.390Z,100869
2018-04-27T00:31:01.715Z,100865
2018-04-27T00:33:30.785Z,100863
2018-04-27T00:35:59.184Z,100865
2018-04-27T00:38:27.560Z,100854
2018-04-27T00:40:56.634Z,100858
2018-04-27T00:43:24.931Z,100856
2018-04-27T00:45:54.117Z,100852
2018-04-27T00:51:35.361Z,100857
2018-04-27T00:54:03.859Z,100849
2018-04-27T00:56:32.159Z,100852
2018-04-27T00:59:00.562Z,100853
2018-04-27T01:01:28.885Z,100849
2018-04-27T01:03:57.222Z,100845
2018-04-27T01:06:25.517Z,100838
2018-04-27T01:08:54.618Z,100839
2018-04-27T01:11:23.492Z,100837
2018-04-27T01:13:52.834Z,100839
2018-04-27T01:16:21.143Z,100837
2018-04-27T01:18:49.467Z,100837
2018-04-27T01:21:17.747Z,100827
2018-04-27T01:23:46.197Z,100827
2018-04-27T01:26:15.398Z,100830
2018-04-27T01:28:43.781Z,100828
2018-04-27T01:31:12.997Z,100825
2018-04-27T01:36:15.955Z,100823
2018-04-27T01:38:44.225Z,100830
2018-04-27T01:41:12.535Z,100824
2018-04-27T01:43:41.694Z,100830
2018-04-27T01:46:09.967Z,100823
2018-04-27T01:48:38.278Z,100822
2018-04-27T01:51:07.331Z,100821
2018-04-27T01:53:36.128Z,100821
2018-04-27T01:56:04.497Z,100817
2018-04-27T01:58:32.852Z,100819
2018-04-27T02:01:01.244Z,100818
2018-04-27T02:03:29.652Z,100814
2018-04-27T02:05:58.118Z,100813
2018-04-27T02:08:27.103Z,100812
2018-04-27T02:10:55.409Z,100808
2018-04-27T02:13:23.742Z,100813
2018-04-27T02:15:52.002Z,100814
2018-04-27T02:18:20.328Z,100807
2018-04-27T02:20:48.688Z,100809
2018-04-27T02:23:16.956Z,100803
2018-04-27T02:25:46.550Z,100801
2018-04-27T02:28:14.884Z,100802
2018-04-27T02:30:43.169Z,100800
2018-04-27T02:33:11.417Z,100802
2018-04-27T02:35:39.733Z,100797
2018-04-27T02:38:08.028Z,100795
2018-04-27T02:40:36.311Z,100800
2018-04-27T02:43:04.662Z,100796
2018-04-27T02:45:33.824Z,100797
2018-04-27T02:48:02.083Z,100792
2018-04-27T02:50:30.358Z,100789
2018-04-27T02:52:58.605Z,100792
2018-04-27T02:55:26.872Z,100790
2018-04-27T02:57:55.850Z,100786
2018-04-27T03:00:24.202Z,100779
2018-04-27T03:02:52.518Z,100777
2018-04-27T03:05:20.993Z,100780
2018-04-27T03:07:50.067Z,100775
2018-04-27T03:10:18.430Z,100772
2018-04-27T03:12:46.932Z,100771
2018-04-27T03:15:15.308Z,100774
2018-04-27T03:17:44.528Z,100776
2018-04-27T03:20:12.868Z,100771
2018-04-27T03:22:41.391Z,100771
2018-04-27T03:25:09.647Z,100770
2018-04-27T03:27:38.752Z,100765
2018-04-27T03:30:07.034Z,100763
2018-04-27T03:32:37.108Z,100761
2018-04-27T03:35:05.387Z,100762
2018-04-27T03:37:33.671Z,100763
2018-04-27T03:40:02.772Z,100766
2018-04-27T03:42:32.074Z,100756
2018-04-27T03:45:01.267Z,100758
2018-04-27T03:47:29.545Z,100755
2018-04-27T03:49:57.829Z,100751
2018-04-27T03:52:26.891Z,100749
2018-04-27T03:54:55.258Z,100747
2018-04-27T03:57:23.507Z,100741
2018-04-27T04:03:20.633Z,100741
2018-04-27T04:05:48.927Z,100737
2018-04-27T04:08:17.957Z,100737
2018-04-27T04:10:46.268Z,100736
2018-04-27T04:13:14.551Z,100735
2018-04-27T04:15:42.818Z,100734
2018-04-27T04:18:11.238Z,100733
2018-04-27T04:20:40.340Z,100730
2018-04-27T04:23:09.356Z,100731
2018-04-27T04:25:37.594Z,100734
2018-04-27T04:28:06.671Z,100733
2018-04-27T04:30:34.933Z,100734
2018-04-27T04:33:03.235Z,100731
2018-04-27T04:35:31.557Z,100734
2018-04-27T04:37:59.834Z,100733
2018-04-27T04:40:28.121Z,100735
2018-04-27T04:42:57.613Z,100732
2018-04-27T04:45:25.962Z,100733
2018-04-27T04:47:55.058Z,100728
2018-04-27T04:50:24.168Z,100727
2018-04-27T04:52:52.427Z,100725
2018-04-27T04:55:21.513Z,100720
2018-04-27T04:57:50.662Z,100722
2018-04-27T05:00:18.972Z,100723
2018-04-27T05:02:48.082Z,100723
2018-04-27T05:05:16.317Z,100722
2018-04-27T05:07:44.733Z,100723
2018-04-27T05:10:13.826Z,100715
2018-04-27T05:12:42.934Z,100705
2018-04-27T05:15:12.073Z,100698
2018-04-27T05:17:40.479Z,100700
2018-04-27T05:20:08.719Z,100695
2018-04-27T05:22:37.013Z,100698
2018-04-27T05:25:05.340Z,100699
2018-04-27T05:27:34.363Z,100697
2018-04-27T05:30:02.633Z,100700
2018-04-27T05:32:30.945Z,100695
2018-04-27T05:34:59.207Z,100696
2018-04-27T05:37:27.556Z,100695
2018-04-27T05:39:55.841Z,100693
2018-04-27T05:42:24.254Z,100688
2018-04-27T05:44:52.567Z,100687
2018-04-27T05:47:20.863Z,100690
2018-04-27T05:49:49.336Z,100684
2018-04-27T05:52:19.301Z,100687
2018-04-27T05:54:47.859Z,100686
2018-04-27T05:57:16.151Z,100676
2018-04-27T05:59:44.536Z,100677
2018-04-27T06:02:13.097Z,100671
2018-04-27T06:04:41.602Z,100671
2018-04-27T06:07:10.609Z,100669
2018-04-27T06:09:38.957Z,100664
2018-04-27T06:12:08.052Z,100664
2018-04-27T06:14:36.473Z,100666
2018-04-27T06:17:05.637Z,100664
2018-04-27T06:19:34.088Z,100663
2018-04-27T06:22:02.447Z,100661
2018-04-27T06:24:31.669Z,100655
2018-04-27T06:27:00.008Z,100651
2018-04-27T06:29:28.295Z,100656
2018-04-27T06:31:57.396Z,100661
2018-04-27T06:34:25.652Z,100655
2018-04-27T06:36:54.018Z,100651
2018-04-27T06:39:22.321Z,100652
2018-04-27T06:41:51.623Z,100650
2018-04-27T06:44:20.168Z,100650
2018-04-27T06:46:48.472Z,100651
2018-04-27T06:49:17.520Z,100642
2018-04-27T06:51:45.943Z,100640
2018-04-27T06:54:15.048Z,100634
2018-04-27T06:56:44.087Z,100639
2018-04-27T06:59:12.456Z,100632
2018-04-27T07:01:40.969Z,100637
2018-04-27T07:04:09.339Z,100639
2018-04-27T07:06:37.772Z,100630
2018-04-27T07:09:06.242Z,100635
2018-04-27T07:11:34.585Z,100635
2018-04-27T07:14:02.877Z,100631
2018-04-27T07:16:31.176Z,100628
2018-04-27T07:19:00.249Z,100629
2018-04-27T07:21:28.709Z,100624
2018-04-27T07:23:57.383Z,100624
2018-04-27T07:26:25.673Z,100624
2018-04-27T07:28:53.997Z,100622
2018-04-27T07:31:23.958Z,100615
2018-04-27T07:33:54.180Z,100614
2018-04-27T07:36:22.590Z,100609
2018-04-27T07:38:51.067Z,100611
2018-04-27T07:41:19.367Z,100605
2018-04-27T07:43:47.680Z,100598
2018-04-27T07:46:15.982Z,100601
2018-04-27T07:48:44.338Z,100591
2018-04-27T07:51:12.622Z,100592
2018-04-27T07:53:40.997Z,100580
2018-04-27T07:56:09.319Z,100581
2018-04-27T07:58:38.688Z,100576
2018-04-27T08:01:07.044Z,100579
2018-04-27T08:03:35.459Z,100580
2018-04-27T08:06:03.737Z,100573
2018-04-27T08:08:32.229Z,100574
2018-04-27T08:11:01.339Z,100568
2018-04-27T08:13:29.644Z,100562
2018-04-27T08:15:57.922Z,100561
2018-04-27T08:18:26.228Z,100553
2018-04-27T08:20:54.949Z,100555
2018-04-27T08:23:24.008Z,100554
2018-04-27T08:25:52.237Z,100553
2018-04-27T08:28:20.692Z,100557
2018-04-27T08:30:49.746Z,100554
2018-04-27T08:33:18.013Z,100557
2018-04-27T08:35:46.338Z,100552
2018-04-27T08:38:15.489Z,100549
2018-04-27T08:40:43.793Z,100547
2018-04-27T08:43:12.130Z,100542
2018-04-27T08:45:40.408Z,100549
2018-04-27T08:48:08.709Z,100541
2018-04-27T08:50:36.982Z,100541
2018-04-27T08:53:05.277Z,100538
2018-04-27T08:55:33.569Z,100537
2018-04-27T08:58:01.893Z,100529
2018-04-27T09:00:30.622Z,100525
2018-04-27T09:02:59.014Z,100518
2018-04-27T09:05:28.419Z,100525
2018-04-27T09:07:56.735Z,100515
2018-04-27T09:10:25.287Z,100525
2018-04-27T09:12:54.445Z,100522
2018-04-27T09:15:23.696Z,100519
2018-04-27T09:17:52.006Z,100514
2018-04-27T09:20:20.386Z,100511
2018-04-27T09:22:48.920Z,100501
2018-04-27T09:25:18.060Z,100505
2018-04-27T09:27:46.357Z,100505
2018-04-27T09:30:15.436Z,100497
2018-04-27T09:32:43.728Z,100493
2018-04-27T09:35:12.076Z,100489
2018-04-27T09:37:40.394Z,100489
2018-04-27T09:40:09.625Z,100489
2018-04-27T09:42:37.935Z,100486
2018-04-27T09:45:06.301Z,100481
2018-04-27T09:47:34.720Z,100481
2018-04-27T09:50:04.339Z,100480
2018-04-27T09:52:32.722Z,100474
2018-04-27T09:55:01.825Z,100477
2018-04-27T09:57:31.029Z,100478
2018-04-27T09:59:59.404Z,100467
2018-04-27T10:02:28.553Z,100467
2018-04-27T10:04:56.884Z,100459
2018-04-27T10:07:25.238Z,100448
2018-04-27T10:09:53.536Z,100450
2018-04-27T10:12:22.609Z,100448
2018-04-27T10:14:50.961Z,100436
2018-04-27T10:17:19.293Z,100442
2018-04-27T10:19:47.713Z,100436
2018-04-27T10:22:16.076Z,100423
2018-04-27T10:24:45.974Z,100417
2018-04-27T10:27:14.434Z,100413
2018-04-27T10:29:43.461Z,100409
2018-04-27T10:32:12.020Z,100411
2018-04-27T10:34:40.541Z,100400
2018-04-27T10:37:08.840Z,100394
2018-04-27T10:39:37.120Z,100393
2018-04-27T10:42:05.474Z,100394
2018-04-27T10:44:33.788Z,100390
2018-04-27T10:47:02.197Z,100384
2018-04-27T10:49:30.497Z,100371
2018-04-27T10:51:58.764Z,100370
2018-04-27T10:54:27.242Z,100366
2018-04-27T10:56:55.640Z,100368
2018-04-27T10:59:23.914Z,100369
2018-04-27T11:01:52.308Z,100360
2018-04-27T11:04:24.040Z,100359
2018-04-27T11:06:52.530Z,100310
2018-04-27T11:09:20.840Z,100344
2018-04-27T11:11:49.250Z,100343
2018-04-27T11:14:17.611Z,100338
2018-04-27T11:16:46.823Z,100333
2018-04-27T11:19:15.196Z,100341
2018-04-27T11:21:43.487Z,100334
2018-04-27T11:24:11.757Z,100326
2018-04-27T11:26:40.041Z,100316
2018-04-27T11:29:08.436Z,100321
2018-04-27T11:31:36.695Z,100317
2018-04-27T11:34:06.152Z,100315
2018-04-27T11:36:34.557Z,100306
2018-04-27T11:39:03.676Z,100303
2018-04-27T11:41:32.057Z,100302
2018-04-27T11:44:00.489Z,100288
2018-04-27T11:46:28.812Z,100281
2018-04-27T11:48:57.132Z,100283
2018-04-27T11:51:25.435Z,100268
2018-04-27T11:53:54.497Z,100275
2018-04-27T11:56:22.800Z,100263
2018-04-27T11:58:52.013Z,100262
2018-04-27T12:01:21.081Z,100258
2018-04-27T12:03:49.411Z,100265
2018-04-27T12:06:17.722Z,100257
2018-04-27T12:08:47.162Z,100259
2018-04-27T12:11:17.583Z,100222
2018-04-27T12:13:45.991Z,100244
2018-04-27T12:16:14.247Z,100237
2018-04-27T12:18:42.648Z,100230
2018-04-27T12:21:10.955Z,100217
2018-04-27T12:23:39.482Z,100203
2018-04-27T12:26:08.580Z,100198
2018-04-27T12:28:37.677Z,100185
2018-04-27T12:31:06.042Z,100174
2018-04-27T12:33:35.111Z,100173
2018-04-27T12:36:03.736Z,100172
2018-04-27T12:38:32.341Z,100170
2018-04-27T12:41:00.612Z,100169
2018-04-27T12:43:29.032Z,100166
2018-04-27T12:45:57.268Z,100156
2018-04-27T12:48:25.753Z,100148
2018-04-27T12:50:54.070Z,100141
2018-04-27T12:53:22.479Z,100136
2018-04-27T12:55:51.933Z,100123
2018-04-27T12:58:20.359Z,100126
2018-04-27T13:00:49.558Z,100129
2018-04-27T13:03:18.652Z,100126
2018-04-27T13:05:47.924Z,100128
2018-04-27T13:08:16.212Z,100129
2018-04-27T13:10:44.588Z,100116
2018-04-27T13:13:12.911Z,100112
2018-04-27T13:15:41.207Z,100104
2018-04-27T13:18:10.463Z,100103
2018-04-27T13:20:38.777Z,100089
2018-04-27T13:23:07.561Z,100079
2018-04-27T13:25:36.278Z,100079
2018-04-27T13:28:04.758Z,100080
2018-04-27T13:30:33.048Z,100085
2018-04-27T13:33:01.612Z,100080
2018-04-27T13:35:29.991Z,100082
2018-04-27T13:37:58.506Z,100077
2018-04-27T13:40:26.889Z,100083
2018-04-27T13:42:56.084Z,100070
2018-04-27T13:45:25.367Z,100069
2018-04-27T13:47:53.898Z,100058
2018-04-27T13:50:22.263Z,100059
2018-04-27T13:52:50.596Z,100054
2018-04-27T13:55:20.943Z,100055
2018-04-27T13:57:50.049Z,100055
2018-04-27T14:00:19.394Z,100047
2018-04-27T14:02:47.987Z,100042
2018-04-27T14:05:16.493Z,100040
2018-04-27T14:07:44.759Z,100035
2018-04-27T14:10:13.146Z,100035
2018-04-27T14:12:41.517Z,100034
2018-04-27T14:15:10.212Z,100029
2018-04-27T14:17:38.837Z,100032
2018-04-27T14:20:07.247Z,100025
2018-04-27T14:22:35.718Z,100028
2018-04-27T14:25:04.138Z,100022
2018-04-27T14:27:33.355Z,100017
2018-04-27T14:30:02.578Z,100011
2018-04-27T14:32:31.124Z,100000
2018-04-27T14:35:00.300Z,99995
2018-04-27T14:37:28.729Z,99984
2018-04-27T14:39:58.331Z,99985
2018-04-27T14:42:26.730Z,99978
2018-04-27T14:44:55.272Z,99982
2018-04-27T14:47:24.396Z,99978
2018-04-27T14:49:52.778Z,99974
2018-04-27T14:52:21.252Z,99978
2018-04-27T14:54:49.575Z,99969
2018-04-27T14:57:17.807Z,99967
2018-04-27T14:59:46.293Z,99966
2018-04-27T15:02:14.659Z,99960
2018-04-27T15:04:43.007Z,99958
2018-04-27T15:07:11.593Z,99954
2018-04-27T15:09:40.822Z,99946
2018-04-27T15:12:09.190Z,99946
2018-04-27T15:14:38.579Z,99946
2018-04-27T15:17:06.979Z,99938
2018-04-27T15:19:35.306Z,99941
2018-04-27T15:22:03.732Z,99935
2018-04-27T15:24:32.067Z,99923
2018-04-27T15:27:00.596Z,99929
2018-04-27T15:29:28.991Z,99931
2018-04-27T15:31:57.413Z,99923
2018-04-27T15:34:26.004Z,99930
2018-04-27T15:36:55.152Z,99931
2018-04-27T15:39:23.468Z,99934
2018-04-27T15:41:51.793Z,99927
2018-04-27T15:44:20.148Z,99930
2018-04-27T15:46:49.364Z,99924
2018-04-27T15:49:17.666Z,99937
2018-04-27T15:51:45.982Z,99938
2018-04-27T15:54:14.278Z,99945
2018-04-27T15:56:42.676Z,99943
2018-04-27T15:59:11.374Z,99937
2018-04-27T16:01:39.648Z,99931
2018-04-27T16:04:07.965Z,99922
2018-04-27T16:06:36.283Z,99923
2018-04-27T16:09:04.616Z,99925
2018-04-27T16:11:32.991Z,99923
2018-04-27T16:14:01.435Z,99926
2018-04-27T16:16:30.794Z,99924
2018-04-27T16:18:59.872Z,99928
2018-04-27T16:21:29.428Z,99928
2018-04-27T16:23:58.629Z,99924
2018-04-27T16:26:33.027Z,99921
2018-04-27T16:29:02.106Z,99926
2018-04-27T16:31:31.164Z,99928
2018-04-27T16:33:59.502Z,99916
2018-04-27T16:36:27.828Z,99910
2018-04-27T16:38:56.188Z,99915
2018-04-27T16:41:24.533Z,99915
2018-04-27T16:43:52.877Z,99907
2018-04-27T16:46:22.094Z,99901
2018-04-27T16:48:51.234Z,99895
2018-04-27T16:51:19.553Z,99900
2018-04-27T16:53:48.805Z,99892
2018-04-27T16:56:17.295Z,99890
2018-04-27T16:58:45.829Z,99890
2018-04-27T17:01:14.243Z,99894
2018-04-27T17:03:42.596Z,99898
2018-04-27T17:06:11.875Z,99905
2018-04-27T17:08:40.379Z,99910
2018-04-27T17:11:09.971Z,99911
2018-04-27T17:13:38.461Z,99909
2018-04-27T17:16:07.105Z,99911
2018-04-27T17:18:35.713Z,99923
2018-04-27T17:21:04.048Z,99928
2018-04-27T17:23:32.383Z,99925
2018-04-27T17:26:01.497Z,99920
2018-04-27T17:28:29.827Z,99915
2018-04-27T17:30:58.144Z,99910
2018-04-27T17:33:26.570Z,99899
2018-04-27T17:35:55.353Z,99896
2018-04-27T17:38:23.813Z,99898
2018-04-27T17:40:52.559Z,99902
2018-04-27T17:43:20.942Z,99903
2018-04-27T17:45:49.489Z,99902
2018-04-27T17:48:17.852Z,99903
2018-04-27T17:50:46.207Z,99908
2018-04-27T17:53:14.487Z,99904
2018-04-27T17:55:43.093Z,99899
2018-04-27T17:58:12.189Z,99898
2018-04-27T18:00:40.623Z,99898
2018-04-27T18:03:09.130Z,99904
2018-04-27T18:05:37.601Z,99903
2018-04-27T18:08:05.965Z,99898
2018-04-27T18:10:35.293Z,99902
2018-04-27T18:13:03.618Z,99907
2018-04-27T18:15:33.142Z,99898
2018-04-27T18:18:02.639Z,99900
2018-04-27T18:20:31.879Z,99898
2018-04-27T18:23:00.549Z,99901
2018-04-27T18:25:30.256Z,99910
2018-04-27T18:27:58.781Z,99910
2018-04-27T18:30:28.718Z,99910
2018-04-27T18:32:57.311Z,99910
2018-04-27T18:35:26.042Z,99908
2018-04-27T18:37:54.441Z,99909
2018-04-27T18:40:23.039Z,99912
2018-04-27T18:42:51.621Z,99912
2018-04-27T18:45:20.136Z,99913
2018-04-27T18:47:48.508Z,99915
2018-04-27T18:50:17.680Z,99920
2018-04-27T18:52:46.238Z,99912
2018-04-27T18:55:15.020Z,99917
2018-04-27T18:57:43.812Z,99921
2018-04-27T19:00:12.920Z,99913
2018-04-27T19:02:41.652Z,99917
2018-04-27T19:05:10.184Z,99917
2018-04-27T19:07:38.810Z,99914
2018-04-27T19:10:07.859Z,99919
2018-04-27T19:12:36.297Z,99912
2018-04-27T19:15:04.922Z,99913
2018-04-27T19:17:34.908Z,99917
2018-04-27T19:20:05.041Z,99919
2018-04-27T19:22:35.086Z,99913
2018-04-27T19:25:05.368Z,99920
2018-04-27T19:27:35.730Z,99924
2018-04-27T19:30:05.862Z,99923
2018-04-27T19:32:36.023Z,99925
2018-04-27T19:35:05.245Z,99926
2018-04-27T19:37:34.960Z,99906
2018-04-27T19:40:03.781Z,99924
2018-04-27T19:42:32.715Z,99930
2018-04-27T19:45:01.416Z,99931
2018-04-27T19:47:30.016Z,99928
2018-04-27T19:49:58.619Z,99925
2018-04-27T19:52:27.082Z,99926
2018-04-27T19:54:55.490Z,99923
2018-04-27T19:57:23.910Z,99925
2018-04-27T19:59:52.240Z,99921
2018-04-27T20:02:20.838Z,99918
2018-04-27T20:04:49.271Z,99916
2018-04-27T20:07:17.600Z,99909
2018-04-27T20:09:46.679Z,99911
2018-04-27T20:12:15.064Z,99911
2018-04-27T20:14:45.074Z,99913
2018-04-27T20:17:13.478Z,99905
2018-04-27T20:19:43.698Z,99904
2018-04-27T20:22:23.091Z,99906
2018-04-27T20:25:01.382Z,99908
2018-04-27T20:30:25.264Z,99909
2018-04-27T20:32:54.509Z,99913
2018-04-27T20:35:22.872Z,99907
2018-04-27T20:37:53.050Z,99915
2018-04-27T20:40:27.086Z,99913
2018-04-27T20:42:55.655Z,99908
2018-04-27T20:45:24.933Z,99913
2018-04-27T20:47:54.375Z,99908
2018-04-27T20:50:27.818Z,99912
2018-04-27T20:53:06.219Z,99909
2018-04-27T20:55:35.241Z,99906
2018-04-27T20:58:04.454Z,99904
2018-04-27T21:00:33.070Z,99907
2018-04-27T21:03:01.429Z,99904
2018-04-27T21:05:29.835Z,99902
2018-04-27T21:07:58.126Z,99905
2018-04-27T21:10:30.508Z,99907
2018-04-27T21:12:59.015Z,99908
2018-04-27T21:15:28.208Z,99904
2018-04-27T21:17:57.310Z,99908
2018-04-27T21:20:29.519Z,99905
2018-04-27T21:22:58.862Z,99906
2018-04-27T21:25:39.511Z,99902
2018-04-27T21:28:18.993Z,99906
2018-04-27T21:30:50.249Z,99907
2018-04-27T21:33:19.595Z,99905
2018-04-27T21:35:55.519Z,99904
2018-04-27T21:38:42.193Z,99905
2018-04-27T21:41:44.960Z,99903
2018-04-27T21:47:23.763Z,99908
2018-04-27T21:49:52.118Z,99908
2018-04-27T21:55:24.310Z,99916
2018-04-27T21:58:04.425Z,99919
2018-04-27T22:00:33.575Z,99920
2018-04-27T22:03:19.053Z,99915
2018-04-27T22:09:03.525Z,99912
2018-04-27T22:11:38.529Z,99919
2018-04-27T22:14:34.115Z,99920
2018-04-27T22:17:12.258Z,99921
2018-04-27T22:19:40.614Z,99924
2018-04-27T22:22:09.669Z,99925
2018-04-27T22:27:39.242Z,99936
2018-04-27T22:30:15.100Z,99930
2018-04-27T22:32:44.246Z,99933
2018-04-27T22:35:15.099Z,99929
2018-04-27T22:37:45.079Z,99930
2018-04-27T22:40:36.240Z,99927
2018-04-27T22:43:12.964Z,99934
2018-04-27T22:45:45.062Z,99935
2018-04-27T22:51:35.732Z,99938
2018-04-27T22:54:15.653Z,99936
2018-04-27T22:56:53.794Z,99941
2018-04-27T22:59:29.661Z,99942
2018-04-27T23:07:58.744Z,99940
2018-04-27T23:10:29.559Z,99938
2018-04-27T23:13:07.004Z,99944
2018-04-27T23:15:42.029Z,99951
2018-04-27T23:18:13.818Z,99950
2018-04-27T23:20:42.520Z,99950
2018-04-27T23:23:11.055Z,99952
2018-04-27T23:25:53.624Z,99952
2018-04-27T23:28:21.901Z,99955
2018-04-27T23:30:50.185Z,99953
2018-04-27T23:33:18.506Z,99948
2018-04-27T23:35:50.573Z,99955
2018-04-27T23:38:21.199Z,99960
2018-04-27T23:40:50.925Z,99960
2018-04-27T23:43:20.879Z,99961
2018-04-27T23:45:49.165Z,99964
2018-04-27T23:48:17.671Z,99964
2018-04-27T23:50:50.299Z,99966
2018-04-27T23:53:18.588Z,99962
2018-04-27T23:55:46.860Z,99956
2018-04-27T23:58:21.119Z,99952
